18°C Temp
15°C Point de rosée
83% Humidité
Température
14 KM/H
9 MPH
8 KTS
180°
Sud

Vitesse du Vent
Nuages ​​épars
Préssion 1012.92 (hPa) - 29.91 (in)
Visibilité 6.2 (mi) - 10.0 (km)

Conditions Actuelles
LFBU
Location 6(km)
Metar :LFBU 171530Z AUTO 18008KT 150V210 9999 SCT016/// BKN034/// BKN070/// ///CB 18/15 Q1013 NOSIG
Dernière mise à jour: 17-10-2019 17:59

Aéroport
  Métar Aviation Données API fournies par https://www.checkwx.com/ PHP scripts by weather34.com ©2019